Time;durP1;ratioP1;P1;durP2;ratioP2;P2;SDS_P1;SDS_P2;PMS_P1;PMS_P2;Temp;Humidity;BMP_temperature;BMP_pressure;BME280_temperature;BME280_humidity;BME280_pressure;Samples;Min_cycle;Max_cycle;Signal;HPM_P1;HPM_P2
2023/06/21 00:00:39;;;;;;;1999.90;999.90;;;20.20;99.90;;;;;;5064784;28;20553;-76
2023/06/21 00:03:30;;;;;;;1999.90;999.90;;;20.20;99.90;;;;;;5077574;28;20044;-76
2023/06/21 00:06:02;;;;;;;1999.90;999.90;;;20.10;99.90;;;;;;5049084;28;20105;-76
2023/06/21 00:08:27;;;;;;;1999.90;999.90;;;20.20;99.90;;;;;;5076535;28;20055;-76
2023/06/21 00:10:53;;;;;;;1999.90;999.90;;;20.10;99.90;;;;;;5060621;28;20055;-75
2023/06/21 00:13:54;;;;;;;1999.90;999.90;;;20.10;99.90;;;;;;5076853;28;20048;-75
2023/06/21 00:16:20;;;;;;;1999.90;999.90;;;20.10;99.90;;;;;;5077253;28;20059;-75
2023/06/21 00:18:50;;;;;;;1999.90;999.90;;;20.10;99.90;;;;;;5076566;28;20052;-75
2023/06/21 00:21:38;;;;;;;;;;;20.10;99.90;;;;;;5079755;28;20066;-75
2023/06/21 00:24:06;;;;;;;1999.90;999.90;;;20.00;99.90;;;;;;5077063;28;19920;-76
2023/06/21 00:27:01;;;;;;;1999.90;999.90;;;20.00;99.90;;;;;;5095375;28;20054;-77
2023/06/21 00:29:41;;;;;;;1999.90;999.90;;;20.00;99.90;;;;;;5064021;28;20052;-75
2023/06/21 00:32:07;;;;;;;1999.90;999.90;;;19.70;99.90;;;;;;5076738;28;20051;-73
2023/06/21 00:34:35;;;;;;;1999.90;999.90;;;20.00;99.90;;;;;;5076773;28;20127;-75
2023/06/21 00:37:19;;;;;;;1999.90;999.90;;;20.00;99.90;;;;;;5092923;28;20036;-76
2023/06/21 00:39:54;;;;;;;1999.90;999.90;;;20.00;99.90;;;;;;5060028;28;20062;-75
2023/06/21 00:42:29;;;;;;;1999.90;999.90;;;20.00;99.90;;;;;;5076410;28;20102;-75
2023/06/21 00:44:57;;;;;;;1999.90;999.90;;;20.00;99.90;;;;;;5043237;28;20060;-75
2023/06/21 00:47:30;;;;;;;1999.90;999.90;;;20.00;99.90;;;;;;5035313;28;20501;-75
2023/06/21 00:50:12;;;;;;;1999.90;999.90;;;20.00;99.90;;;;;;5051909;28;20180;-75
2023/06/21 00:53:03;;;;;;;1999.90;999.90;;;20.00;99.90;;;;;;5019934;28;20141;-75
2023/06/21 00:55:29;;;;;;;1999.90;999.90;;;20.00;99.90;;;;;;5051950;28;20045;-75
2023/06/21 00:58:33;;;;;;;1999.90;999.90;;;20.70;99.90;;;;;;5050915;28;20041;-76
2023/06/21 01:01:05;;;;;;;1999.90;999.90;;;20.00;99.90;;;;;;5067907;28;20048;-76
2023/06/21 01:04:00;;;;;;;1999.90;999.90;;;20.00;99.90;;;;;;5051962;28;20092;-76
2023/06/21 01:07:03;;;;;;;1999.90;999.90;;;20.10;99.90;;;;;;5037675;28;20098;-75
2023/06/21 01:10:16;;;;;;;1999.90;999.90;;;20.10;99.90;;;;;;5035074;28;20056;-74
2023/06/21 01:13:12;;;;;;;1999.90;999.90;;;20.10;99.90;;;;;;5067440;28;20065;-75
2023/06/21 01:15:54;;;;;;;1999.90;999.90;;;20.00;99.90;;;;;;5051385;28;20055;-76
2023/06/21 01:18:31;;;;;;;1999.90;999.90;;;20.10;99.90;;;;;;5055697;28;20070;-75
2023/06/21 01:21:23;;;;;;;1999.90;999.90;;;20.10;99.90;;;;;;5056167;28;20144;-76
2023/06/21 01:24:22;;;;;;;1999.90;999.90;;;20.10;99.90;;;;;;5058120;28;20053;-74
2023/06/21 01:27:52;;;;;;;1999.90;999.90;;;20.10;99.90;;;;;;5073716;28;20032;-75
2023/06/21 01:30:26;;;;;;;1999.90;999.90;;;20.10;99.90;;;;;;5055235;28;20084;-76
2023/06/21 01:33:09;;;;;;;1999.90;999.90;;;20.00;99.90;;;;;;5073564;28;20072;-75
2023/06/21 01:35:52;;;;;;;1999.90;999.90;;;20.10;99.90;;;;;;5074680;28;20045;-75
2023/06/21 01:38:24;;;;;;;1999.90;999.90;;;20.10;99.90;;;;;;5072644;28;20291;-76
2023/06/21 01:41:10;;;;;;;1999.90;999.90;;;20.10;99.90;;;;;;5042765;28;20047;-75
2023/06/21 01:43:55;;;;;;;1999.90;999.90;;;20.10;99.90;;;;;;5056623;28;20101;-73
2023/06/21 01:46:38;;;;;;;1999.90;999.90;;;20.10;99.90;;;;;;5055679;28;20052;-75
2023/06/21 01:49:06;;;;;;;1999.90;999.90;;;20.10;99.90;;;;;;5057190;28;20127;-75
2023/06/21 01:51:53;;;;;;;1999.90;999.90;;;20.10;99.90;;;;;;5055733;28;20064;-75
2023/06/21 01:54:25;;;;;;;1999.90;999.90;;;20.10;99.90;;;;;;5085351;28;20147;-76
2023/06/21 01:57:00;;;;;;;1999.90;999.90;;;20.10;99.90;;;;;;5072311;28;20040;-75
2023/06/21 01:59:43;;;;;;;1999.90;999.90;;;20.10;99.90;;;;;;5071521;28;20059;-75
2023/06/21 02:02:29;;;;;;;1999.90;999.90;;;20.00;99.90;;;;;;5072079;28;20071;-75
2023/06/21 02:04:58;;;;;;;1999.90;999.90;;;19.60;99.90;;;;;;5055263;28;20084;-75
2023/06/21 02:07:31;;;;;;;1999.90;999.90;;;20.00;99.90;;;;;;5054865;28;20052;-76
2023/06/21 02:10:00;;;;;;;1999.90;999.90;;;20.00;99.90;;;;;;5069449;28;20092;-75
2023/06/21 02:12:33;;;;;;;1999.90;999.90;;;20.00;99.90;;;;;;5072342;28;20044;-75
2023/06/21 02:14:59;;;;;;;1999.90;999.90;;;20.00;99.90;;;;;;5071563;28;20059;-75
2023/06/21 02:17:25;;;;;;;1999.90;999.90;;;19.90;99.90;;;;;;5038241;28;20048;-75
2023/06/21 02:19:55;;;;;;;1999.90;999.90;;;19.90;99.90;;;;;;5071217;28;20048;-75
2023/06/21 02:22:21;;;;;;;1999.90;999.90;;;20.00;99.90;;;;;;5072304;28;20049;-74
2023/06/21 02:24:53;;;;;;;1999.90;999.90;;;19.90;99.90;;;;;;5057082;28;20113;-74
2023/06/21 02:27:29;;;;;;;1999.90;999.90;;;19.90;99.90;;;;;;5060370;28;20064;-74
2023/06/21 02:30:46;;;;;;;1999.90;999.90;;;19.90;99.90;;;;;;5085821;28;20056;-74
2023/06/21 02:33:21;;;;;;;1999.90;999.90;;;19.90;99.90;;;;;;5048742;28;20053;-74
2023/06/21 02:35:47;;;;;;;1999.90;999.90;;;19.90;99.90;;;;;;5059195;28;20127;-74
2023/06/21 02:38:25;;;;;;;1999.90;999.90;;;19.90;99.90;;;;;;5058843;28;20056;-75
2023/06/21 02:41:13;;;;;;;1999.90;999.90;;;19.80;99.90;;;;;;5075730;28;20048;-75
2023/06/21 02:43:42;;;;;;;1999.90;999.90;;;19.80;99.90;;;;;;5076734;28;20044;-74
2023/06/21 02:46:21;;;;;;;1999.90;999.90;;;19.80;99.90;;;;;;5075332;28;20095;-74
2023/06/21 02:48:56;;;;;;;1999.90;999.90;;;19.70;99.90;;;;;;5076455;28;20061;-75
2023/06/21 02:51:25;;;;;;;1999.90;999.90;;;19.80;99.90;;;;;;5075489;28;20127;-74
2023/06/21 02:53:52;;;;;;;1999.90;999.90;;;19.70;99.90;;;;;;5058623;28;20722;-74
2023/06/21 02:56:19;;;;;;;1999.90;999.90;;;19.70;99.90;;;;;;5058663;28;20060;-74
2023/06/21 02:59:04;;;;;;;1999.90;999.90;;;19.70;99.90;;;;;;5074849;28;20035;-74
2023/06/21 03:01:34;;;;;;;1999.90;999.90;;;19.70;99.90;;;;;;5058756;28;20041;-74
2023/06/21 03:04:02;;;;;;;1999.90;999.90;;;19.70;99.90;;;;;;5058093;28;20127;-75
2023/06/21 03:06:43;;;;;;;1999.90;999.90;;;20.20;99.90;;;;;;5072444;28;20067;-74
2023/06/21 03:09:12;;;;;;;1999.90;999.90;;;19.60;99.90;;;;;;5075622;28;20148;-74
2023/06/21 03:11:47;;;;;;;1999.90;999.90;;;19.40;99.90;;;;;;5074135;28;20064;-74
2023/06/21 03:14:14;;;;;;;1999.90;999.90;;;19.60;99.90;;;;;;5075495;28;20056;-73
2023/06/21 03:16:40;;;;;;;1999.90;999.90;;;19.70;99.90;;;;;;5058444;28;20127;-74
2023/06/21 03:19:14;;;;;;;1999.90;999.90;;;19.70;99.90;;;;;;5058606;28;20048;-74
2023/06/21 03:24:39;;;;;;;1999.90;999.90;;;19.60;99.90;;;;;;5748755;23;20044;-74
2023/06/21 03:27:05;;;;;;;1999.90;999.90;;;19.70;99.90;;;;;;4921237;29;20060;-76
2023/06/21 03:29:33;;;;;;;1999.90;999.90;;;19.60;99.90;;;;;;4919732;29;20044;-74
2023/06/21 03:31:58;;;;;;;1999.90;999.90;;;19.60;99.90;;;;;;4918452;29;20143;-75
2023/06/21 03:34:24;;;;;;;1999.90;999.90;;;19.60;99.90;;;;;;4919605;29;20135;-75
2023/06/21 03:36:53;;;;;;;1999.90;999.90;;;19.60;99.90;;;;;;4918497;29;20067;-74
2023/06/21 03:39:18;;;;;;;1999.90;999.90;;;19.50;99.90;;;;;;4918510;29;20051;-75
2023/06/21 03:41:44;;;;;;;1999.90;999.90;;;19.50;99.90;;;;;;4919602;29;20052;-75
2023/06/21 03:44:10;;;;;;;1999.90;999.90;;;19.50;99.90;;;;;;4919419;29;20046;-76
2023/06/21 03:46:35;;;;;;;1999.90;999.90;;;19.50;99.90;;;;;;4918457;29;20535;-76
2023/06/21 03:49:01;;;;;;;1999.90;999.90;;;19.50;99.90;;;;;;4902547;29;20048;-76
2023/06/21 03:51:27;;;;;;;1999.90;999.90;;;19.50;99.90;;;;;;4918733;29;20044;-76
2023/06/21 03:53:52;;;;;;;1999.90;999.90;;;19.40;99.90;;;;;;4917780;29;20388;-75
2023/06/21 03:56:18;;;;;;;1999.90;999.90;;;19.40;99.90;;;;;;4919383;29;20508;-72
2023/06/21 03:58:44;;;;;;;1999.90;999.90;;;19.40;99.90;;;;;;4902183;29;20061;-73
2023/06/21 04:01:09;;;;;;;1999.90;999.90;;;19.40;99.90;;;;;;4917911;29;20138;-73
2023/06/21 04:03:35;;;;;;;1999.90;999.90;;;19.40;99.90;;;;;;4917488;29;20083;-73
2023/06/21 04:06:01;;;;;;;1999.90;999.90;;;19.40;99.90;;;;;;4919214;29;20091;-73
2023/06/21 04:08:26;;;;;;;1999.90;999.90;;;19.40;99.90;;;;;;4918998;29;20119;-73
2023/06/21 04:10:52;;;;;;;1999.90;999.90;;;19.40;99.90;;;;;;4917780;29;20052;-73
2023/06/21 04:13:18;;;;;;;1999.90;999.90;;;19.40;99.90;;;;;;4918916;29;20047;-73
2023/06/21 04:15:43;;;;;;;1999.90;999.90;;;19.40;99.90;;;;;;4918778;29;20136;-72
2023/06/21 04:18:09;;;;;;;1999.90;999.90;;;19.40;99.90;;;;;;4917590;29;20104;-73
2023/06/21 04:20:35;;;;;;;1999.90;999.90;;;19.40;99.90;;;;;;4917269;29;20048;-72
2023/06/21 04:23:00;;;;;;;1999.90;999.90;;;19.40;99.90;;;;;;4902036;29;20119;-72
2023/06/21 04:25:26;;;;;;;1999.90;999.90;;;19.50;99.90;;;;;;4918363;29;20052;-73
2023/06/21 04:27:54;;;;;;;1999.90;999.90;;;19.50;99.90;;;;;;4886367;29;20143;-73
2023/06/21 04:30:20;;;;;;;1999.90;999.90;;;19.50;99.90;;;;;;4918517;29;20107;-73
2023/06/21 04:32:45;;;;;;;1999.90;999.90;;;19.50;99.90;;;;;;4918334;29;20050;-72
2023/06/21 04:35:16;;;;;;;1999.90;999.90;;;19.50;99.90;;;;;;4917165;29;20425;-73
2023/06/21 04:37:46;;;;;;;1999.90;999.90;;;19.50;99.90;;;;;;4917663;29;20052;-73
2023/06/21 04:40:17;;;;;;;1999.90;999.90;;;19.50;99.90;;;;;;4902199;29;20123;-72
2023/06/21 04:42:44;;;;;;;1999.90;999.90;;;19.50;99.90;;;;;;4918407;29;20094;-73
2023/06/21 04:45:16;;;;;;;1999.90;999.90;;;19.60;99.90;;;;;;4901311;29;20499;-73
2023/06/21 04:47:48;;;;;;;1999.90;999.90;;;19.60;99.90;;;;;;4916684;29;20056;-73
2023/06/21 04:50:15;;;;;;;1999.90;999.90;;;19.60;99.90;;;;;;4918193;29;20040;-73
2023/06/21 04:52:40;;;;;;;1999.90;999.90;;;19.60;99.90;;;;;;4918361;29;20127;-73
2023/06/21 04:55:07;;;;;;;1999.90;999.90;;;19.60;99.90;;;;;;4919236;29;20139;-73
2023/06/21 04:57:34;;;;;;;1999.90;999.90;;;19.60;99.90;;;;;;4917835;29;20500;-73
2023/06/21 05:00:06;;;;;;;1999.90;999.90;;;19.60;99.90;;;;;;4900922;29;20059;-73
2023/06/21 05:02:32;;;;;;;1999.90;999.90;;;19.60;99.90;;;;;;4918066;29;20051;-73
2023/06/21 05:04:57;;;;;;;1999.90;999.90;;;19.60;99.90;;;;;;4916789;29;20043;-73
2023/06/21 05:07:23;;;;;;;1999.90;999.90;;;19.60;99.90;;;;;;4917864;29;20091;-73
2023/06/21 05:09:49;;;;;;;1999.90;999.90;;;19.60;99.90;;;;;;4918279;29;20040;-74
2023/06/21 05:12:14;;;;;;;1999.90;999.90;;;19.60;99.90;;;;;;4916880;29;20055;-74
2023/06/21 05:14:40;;;;;;;1999.90;999.90;;;19.70;99.90;;;;;;4900824;29;20052;-74
2023/06/21 05:17:06;;;;;;;1999.90;999.90;;;19.70;99.90;;;;;;4901166;29;20054;-73
2023/06/21 05:19:32;;;;;;;1999.90;999.90;;;19.70;99.90;;;;;;4917050;29;20080;-73
2023/06/21 05:21:57;;;;;;;1999.90;999.90;;;19.70;99.90;;;;;;4917077;29;20107;-73
2023/06/21 05:24:23;;;;;;;1999.90;999.90;;;19.60;99.90;;;;;;4916039;29;20048;-72
2023/06/21 05:26:49;;;;;;;1999.90;999.90;;;19.60;99.90;;;;;;4917607;29;20056;-73
2023/06/21 05:29:14;;;;;;;1999.90;999.90;;;19.60;99.90;;;;;;4917544;29;20052;-72
2023/06/21 05:31:44;;;;;;;1999.90;999.90;;;19.60;99.90;;;;;;4916368;29;20052;-73
2023/06/21 05:34:10;;;;;;;1999.90;999.90;;;19.60;99.90;;;;;;4917567;29;20067;-73
2023/06/21 05:36:36;;;;;;;1999.90;999.90;;;19.60;99.90;;;;;;4917518;29;20052;-74
2023/06/21 05:39:03;;;;;;;1999.90;999.90;;;19.60;99.90;;;;;;4916307;29;20127;-74
2023/06/21 05:41:29;;;;;;;1999.90;999.90;;;19.70;99.90;;;;;;4917349;29;20543;-74
2023/06/21 05:43:54;;;;;;;1999.90;999.90;;;19.70;99.90;;;;;;4917352;29;20060;-73
2023/06/21 05:46:20;;;;;;;1999.90;999.90;;;19.70;99.90;;;;;;4916513;29;20103;-74
2023/06/21 05:48:46;;;;;;;1999.90;999.90;;;19.70;99.90;;;;;;4917501;29;20481;-73
2023/06/21 05:51:12;;;;;;;1999.90;999.90;;;19.70;99.90;;;;;;4915565;29;20237;-73
2023/06/21 05:53:38;;;;;;;1999.90;999.90;;;19.80;99.90;;;;;;4916228;29;20044;-73
2023/06/21 05:56:04;;;;;;;1999.90;999.90;;;19.80;99.90;;;;;;4916298;29;20103;-73
2023/06/21 05:58:30;;;;;;;1999.90;999.90;;;19.80;99.90;;;;;;4916229;29;20048;-73
2023/06/21 06:00:56;;;;;;;1999.90;999.90;;;19.80;99.90;;;;;;4919327;29;20499;-73
2023/06/21 06:03:22;;;;;;;1999.90;999.90;;;19.80;99.90;;;;;;4920045;29;20130;-73
2023/06/21 06:05:49;;;;;;;1999.90;999.90;;;19.90;99.90;;;;;;4920309;29;20052;-72
2023/06/21 06:08:16;;;;;;;1999.90;999.90;;;19.80;99.90;;;;;;4921034;29;20048;-72
2023/06/21 06:10:42;;;;;;;1999.90;999.90;;;19.90;99.90;;;;;;4920898;29;20052;-72
2023/06/21 06:13:08;;;;;;;1999.90;999.90;;;19.90;99.90;;;;;;4920821;29;20052;-73
2023/06/21 06:15:33;;;;;;;1999.90;999.90;;;19.90;99.90;;;;;;4920967;29;20103;-73
2023/06/21 06:17:59;;;;;;;1999.90;999.90;;;19.90;99.90;;;;;;4921016;29;20044;-73
2023/06/21 06:20:26;;;;;;;1999.90;999.90;;;19.90;99.90;;;;;;4920780;29;20059;-72
2023/06/21 06:22:52;;;;;;;1999.90;999.90;;;19.90;99.90;;;;;;4919335;29;20056;-73
2023/06/21 06:25:18;;;;;;;1999.90;999.90;;;19.90;99.90;;;;;;4919544;29;20103;-73
2023/06/21 06:27:44;;;;;;;1999.90;999.90;;;19.90;99.90;;;;;;4920692;29;20055;-73
2023/06/21 06:30:11;;;;;;;1999.90;999.90;;;19.90;99.90;;;;;;4904800;29;20044;-73
2023/06/21 06:32:36;;;;;;;1999.90;999.90;;;19.90;99.90;;;;;;4903796;29;20048;-73
2023/06/21 06:35:02;;;;;;;1999.90;999.90;;;19.90;99.90;;;;;;4920475;29;20135;-73
2023/06/21 06:37:28;;;;;;;1999.90;999.90;;;20.00;99.90;;;;;;4920440;29;20051;-74
2023/06/21 06:39:55;;;;;;;1999.90;999.90;;;20.00;99.90;;;;;;4919539;29;20048;-72
2023/06/21 06:42:21;;;;;;;1999.90;999.90;;;20.00;99.90;;;;;;4903729;29;20064;-74
2023/06/21 06:44:50;;;;;;;1999.90;999.90;;;20.00;99.90;;;;;;4920438;29;20040;-72
2023/06/21 06:47:16;;;;;;;1999.90;999.90;;;19.90;99.90;;;;;;4920045;29;20547;-74
2023/06/21 06:49:42;;;;;;;1999.90;999.90;;;19.90;99.90;;;;;;4920259;29;20044;-73
2023/06/21 06:52:10;;;;;;;1999.90;999.90;;;19.90;99.90;;;;;;4919645;29;20091;-73
2023/06/21 06:54:36;;;;;;;1999.90;999.90;;;20.00;99.90;;;;;;4919251;29;20473;-73
2023/06/21 06:57:01;;;;;;;1999.90;999.90;;;19.90;99.90;;;;;;4920226;29;20063;-72
2023/06/21 06:59:27;;;;;;;1999.90;999.90;;;20.00;99.90;;;;;;4920171;29;20047;-72
2023/06/21 07:01:53;;;;;;;1999.90;999.90;;;20.00;99.90;;;;;;4919532;29;20062;-73
2023/06/21 07:04:19;;;;;;;1999.90;999.90;;;20.00;99.90;;;;;;4918991;29;20476;-75
2023/06/21 07:06:44;;;;;;;1999.90;999.90;;;20.00;99.90;;;;;;4919938;29;20050;-72
2023/06/21 07:09:10;;;;;;;1999.90;999.90;;;20.00;99.90;;;;;;4918917;29;20131;-72
2023/06/21 07:11:36;;;;;;;1999.90;999.90;;;20.10;99.90;;;;;;4918930;29;20091;-73
2023/06/21 07:14:02;;;;;;;1999.90;999.90;;;20.10;99.90;;;;;;4918886;29;20054;-73
2023/06/21 07:16:34;;;;;;;1999.90;999.90;;;20.10;99.90;;;;;;4920002;29;20048;-73
2023/06/21 07:18:59;;;;;;;1999.90;999.90;;;20.20;99.90;;;;;;4918911;29;20098;-72
2023/06/21 07:21:27;;;;;;;1999.90;999.90;;;20.20;99.90;;;;;;4917820;29;20414;-73
2023/06/21 07:23:53;;;;;;;1999.90;999.90;;;20.20;99.90;;;;;;4919609;29;20127;-73
2023/06/21 07:26:18;;;;;;;1999.90;999.90;;;20.30;99.90;;;;;;4920129;29;20060;-72
2023/06/21 07:28:44;;;;;;;1999.90;999.90;;;20.30;99.90;;;;;;4918455;29;20111;-72
2023/06/21 07:31:10;;;;;;;1999.90;999.90;;;20.30;99.90;;;;;;4919070;29;20055;-72
2023/06/21 07:33:36;;;;;;;1999.90;999.90;;;20.40;99.90;;;;;;4919417;29;20048;-73
2023/06/21 07:36:02;;;;;;;1999.90;999.90;;;20.50;99.90;;;;;;4918561;29;20083;-72
2023/06/21 07:38:28;;;;;;;1999.90;999.90;;;20.50;99.90;;;;;;4919527;29;20127;-72
2023/06/21 07:40:54;;;;;;;1999.90;999.90;;;20.50;99.90;;;;;;4919295;29;20134;-71
2023/06/21 07:43:20;;;;;;;1999.90;999.90;;;20.50;99.90;;;;;;4919570;29;20055;-71
2023/06/21 07:45:46;;;;;;;1999.90;999.90;;;20.60;99.90;;;;;;4918532;29;20056;-72
2023/06/21 07:48:12;;;;;;;1999.90;999.90;;;20.60;99.90;;;;;;4918350;29;20131;-71
2023/06/21 07:50:37;;;;;;;1999.90;999.90;;;20.70;99.90;;;;;;4919429;29;20498;-72
2023/06/21 07:53:03;;;;;;;1999.90;999.90;;;20.80;99.90;;;;;;4931822;29;20052;-72
2023/06/21 07:55:29;;;;;;;1999.90;999.90;;;20.80;99.90;;;;;;4937750;29;20472;-72
2023/06/21 07:57:55;;;;;;;1999.90;999.90;;;20.90;99.90;;;;;;4921507;29;20135;-71
2023/06/21 08:00:20;;;;;;;1999.90;999.90;;;20.90;99.90;;;;;;4937142;29;20403;-72
2023/06/21 08:02:51;;;;;;;1999.90;999.90;;;20.90;99.90;;;;;;4921487;29;20047;-71
2023/06/21 08:05:20;;;;;;;1999.90;999.90;;;21.00;99.90;;;;;;4937112;29;20058;-71
2023/06/21 08:07:46;;;;;;;1999.90;999.90;;;21.00;99.90;;;;;;4921063;29;20055;-71
2023/06/21 08:10:12;;;;;;;1999.90;999.90;;;21.00;99.90;;;;;;4937138;29;20059;-71
2023/06/21 08:12:38;;;;;;;1999.90;999.90;;;21.10;99.90;;;;;;4921218;29;20062;-71
2023/06/21 08:15:05;;;;;;;1999.90;999.90;;;21.10;99.90;;;;;;4937041;29;20479;-71
2023/06/21 08:17:30;;;;;;;1999.90;999.90;;;21.20;99.90;;;;;;4937876;29;20083;-72
2023/06/21 08:19:56;;;;;;;1999.90;999.90;;;21.30;99.90;;;;;;4937605;29;20094;-71
2023/06/21 08:22:22;;;;;;;1999.90;999.90;;;21.30;99.90;;;;;;4935393;29;20055;-73
2023/06/21 08:24:49;;;;;;;1999.90;999.90;;;21.40;99.90;;;;;;4937548;29;20066;-72
2023/06/21 08:27:15;;;;;;;1999.90;999.90;;;21.40;99.90;;;;;;4921197;29;20067;-73
2023/06/21 08:29:40;;;;;;;1999.90;999.90;;;21.50;99.90;;;;;;4938038;29;20047;-72
2023/06/21 08:32:06;;;;;;;1999.90;999.90;;;21.60;99.90;;;;;;4920893;29;20051;-72
2023/06/21 08:34:32;;;;;;;1999.90;999.90;;;21.60;99.90;;;;;;4915942;29;20424;-73
2023/06/21 08:36:58;;;;;;;1999.90;999.90;;;21.60;99.90;;;;;;4909405;29;20437;-72
2023/06/21 08:39:24;;;;;;;1999.90;999.90;;;21.70;99.90;;;;;;4891936;29;20049;-73
2023/06/21 08:41:49;;;;;;;1999.90;999.90;;;21.70;99.90;;;;;;4906866;29;20141;-71
2023/06/21 08:44:15;;;;;;;1999.90;999.90;;;21.80;99.90;;;;;;4892810;29;20048;-72
2023/06/21 08:46:42;;;;;;;1999.90;999.90;;;21.80;99.90;;;;;;4907744;29;20123;-73
2023/06/21 08:49:13;;;;;;;1999.90;999.90;;;21.80;99.90;;;;;;4907873;29;20501;-73
2023/06/21 08:51:40;;;;;;;1999.90;999.90;;;21.90;99.90;;;;;;4908639;29;20519;-73
2023/06/21 08:54:07;;;;;;;1999.90;999.90;;;21.90;99.90;;;;;;4908173;29;20493;-73
2023/06/21 08:56:55;;;;;;;1999.90;999.90;;;21.90;99.90;;;;;;4907358;29;20053;-72
2023/06/21 08:59:41;;;;;;;1999.90;999.90;;;22.00;99.90;;;;;;4907547;29;20052;-74
2023/06/21 09:02:27;;;;;;;1999.90;999.90;;;22.00;99.90;;;;;;4908272;29;20051;-73
2023/06/21 09:04:55;;;;;;;1999.90;999.90;;;22.10;99.90;;;;;;4914368;29;20052;-73
2023/06/21 09:07:22;;;;;;;1999.90;999.90;;;22.10;99.90;;;;;;4917976;29;20048;-73
2023/06/21 09:09:51;;;;;;;1999.90;999.90;;;22.20;99.90;;;;;;4901013;29;20048;-73
2023/06/21 09:12:17;;;;;;;1999.90;999.90;;;22.30;99.90;;;;;;4917810;29;20044;-73
2023/06/21 09:14:43;;;;;;;1999.90;999.90;;;22.40;99.90;;;;;;4916766;29;20106;-72
2023/06/21 09:17:11;;;;;;;1999.90;999.90;;;22.40;99.90;;;;;;4917923;29;20122;-72
2023/06/21 09:19:37;;;;;;;1999.90;999.90;;;22.50;99.90;;;;;;4901156;29;20404;-73
2023/06/21 09:22:03;;;;;;;1999.90;999.90;;;22.60;99.90;;;;;;4917382;29;20052;-72
2023/06/21 09:24:29;;;;;;;1999.90;999.90;;;22.60;99.90;;;;;;4917556;29;20083;-72
2023/06/21 09:26:55;;;;;;;1999.90;999.90;;;22.70;99.90;;;;;;4917816;29;20588;-73
2023/06/21 09:29:21;;;;;;;1999.90;999.90;;;22.70;99.90;;;;;;4917492;29;20175;-72
2023/06/21 09:31:47;;;;;;;1999.90;999.90;;;22.70;99.90;;;;;;4917264;29;20056;-71
2023/06/21 09:34:13;;;;;;;1999.90;999.90;;;22.70;99.90;;;;;;4910011;29;20044;-72
2023/06/21 09:36:40;;;;;;;1999.90;999.90;;;22.70;99.90;;;;;;4928507;29;20131;-71
2023/06/21 09:39:10;;;;;;;1999.90;999.90;;;22.80;99.90;;;;;;4929475;29;20071;-73
2023/06/21 09:41:38;;;;;;;1999.90;999.90;;;22.80;99.90;;;;;;4934781;29;20059;-72
2023/06/21 09:44:04;;;;;;;1999.90;999.90;;;22.90;99.90;;;;;;4925932;29;20054;-72
2023/06/21 09:46:30;;;;;;;1999.90;999.90;;;22.90;99.90;;;;;;4909580;29;20059;-72
2023/06/21 09:49:07;;;;;;;1999.90;999.90;;;23.00;99.90;;;;;;4908034;29;20048;-72
2023/06/21 09:51:32;;;;;;;1999.90;999.90;;;22.90;99.90;;;;;;4906120;29;20045;-73
2023/06/21 09:54:02;;;;;;;1999.90;999.90;;;23.00;99.90;;;;;;4908719;29;20041;-73
2023/06/21 09:56:32;;;;;;;1999.90;999.90;;;23.00;99.90;;;;;;4906004;29;20040;-72
2023/06/21 09:59:00;;;;;;;1999.90;999.90;;;23.00;99.90;;;;;;4907465;29;20044;-72
2023/06/21 10:01:36;;;;;;;1999.90;999.90;;;23.00;99.90;;;;;;4904971;29;20464;-73
2023/06/21 10:04:08;;;;;;;1999.90;999.90;;;23.00;99.90;;;;;;4907649;29;20108;-72
2023/06/21 10:06:33;;;;;;;1999.90;999.90;;;23.00;99.90;;;;;;4906560;29;20041;-72
2023/06/21 10:08:59;;;;;;;1999.90;999.90;;;23.00;99.90;;;;;;4908293;29;20127;-72
2023/06/21 10:11:26;;;;;;;1999.90;999.90;;;23.00;99.90;;;;;;4906007;29;20501;-73
2023/06/21 10:13:53;;;;;;;1999.90;999.90;;;23.00;99.90;;;;;;4892313;29;20289;-72
2023/06/21 10:16:21;;;;;;;1999.90;999.90;;;23.10;99.90;;;;;;4906148;29;20109;-73
2023/06/21 10:18:48;;;;;;;1999.90;999.90;;;23.10;99.90;;;;;;4908424;29;20048;-72
2023/06/21 10:21:15;;;;;;;1999.90;999.90;;;23.10;99.90;;;;;;4906745;29;20310;-72
2023/06/21 10:23:42;;;;;;;1999.90;999.90;;;23.10;99.90;;;;;;4908417;29;20044;-73
2023/06/21 10:26:14;;;;;;;1999.90;999.90;;;23.10;99.90;;;;;;4905795;29;20112;-73
2023/06/21 10:28:43;;;;;;;1999.90;999.90;;;23.10;99.90;;;;;;4906066;29;20059;-74
2023/06/21 10:31:09;;;;;;;1999.90;999.90;;;23.10;99.90;;;;;;4907717;29;20044;-73
2023/06/21 10:33:37;;;;;;;1999.90;999.90;;;23.20;99.90;;;;;;4908395;29;20052;-72
2023/06/21 10:36:04;;;;;;;1999.90;999.90;;;23.20;99.90;;;;;;4905394;29;20051;-74
2023/06/21 10:38:35;;;;;;;1999.90;999.90;;;23.20;99.90;;;;;;4876338;29;20107;-73
2023/06/21 10:41:02;;;;;;;1999.90;999.90;;;23.30;99.90;;;;;;4906267;29;20036;-72
2023/06/21 10:43:29;;;;;;;1999.90;999.90;;;23.30;99.90;;;;;;4907320;29;20063;-74
2023/06/21 10:45:57;;;;;;;1999.90;999.90;;;23.40;99.90;;;;;;4907458;29;20176;-72
2023/06/21 10:48:24;;;;;;;1999.90;999.90;;;23.40;99.90;;;;;;4910682;29;20052;-73
2023/06/21 10:50:51;;;;;;;1999.90;999.90;;;23.50;99.90;;;;;;4909759;29;20511;-72
2023/06/21 10:53:19;;;;;;;1999.90;999.90;;;23.50;99.90;;;;;;4893036;29;20059;-72
2023/06/21 10:55:48;;;;;;;1999.90;999.90;;;23.60;99.90;;;;;;4895292;29;20146;-72
2023/06/21 10:58:15;;;;;;;1999.90;999.90;;;23.60;99.90;;;;;;4906259;29;20044;-72
2023/06/21 11:00:44;;;;;;;1999.90;999.90;;;23.70;99.90;;;;;;4888334;29;20126;-72
2023/06/21 11:03:15;;;;;;;1999.90;999.90;;;23.80;99.90;;;;;;4908857;29;20112;-72
2023/06/21 11:05:41;;;;;;;1999.90;999.90;;;23.90;99.90;;;;;;4911910;29;20048;-73
2023/06/21 11:08:09;;;;;;;1999.90;999.90;;;23.90;99.90;;;;;;4907934;29;20123;-73
2023/06/21 11:10:47;;;;;;;1999.90;999.90;;;23.90;99.90;;;;;;4910646;29;20051;-73
2023/06/21 11:13:15;;;;;;;1999.90;999.90;;;24.00;99.90;;;;;;4919604;29;20059;-73
2023/06/21 11:15:42;;;;;;;1999.90;999.90;;;24.10;99.90;;;;;;4920086;29;20408;-72
2023/06/21 11:18:10;;;;;;;1999.90;999.90;;;24.10;99.90;;;;;;4919905;29;20437;-73
2023/06/21 11:20:57;;;;;;;1999.90;999.90;;;24.20;99.90;;;;;;4919286;29;20048;-72
2023/06/21 11:23:23;;;;;;;1999.90;999.90;;;24.30;99.90;;;;;;4919634;29;20142;-72
2023/06/21 11:25:50;;;;;;;1999.90;999.90;;;24.40;99.90;;;;;;4918415;29;20503;-71
2023/06/21 11:28:19;;;;;;;1999.90;999.90;;;24.40;99.90;;;;;;4920300;29;20052;-73
2023/06/21 11:31:07;;;;;;;1999.90;999.90;;;24.40;99.90;;;;;;4919852;29;20064;-69
2023/06/21 11:33:59;;;;;;;1999.90;999.90;;;24.40;99.90;;;;;;4919649;29;20048;-72
2023/06/21 11:36:31;;;;;;;1999.90;999.90;;;24.30;99.90;;;;;;4918759;29;20078;-72
2023/06/21 11:39:20;;;;;;;1999.90;999.90;;;24.30;99.90;;;;;;4918942;29;20048;-71
2023/06/21 11:41:45;;;;;;;1999.90;999.90;;;24.30;99.90;;;;;;4918273;29;20048;-72
2023/06/21 11:44:23;;;;;;;1999.90;999.90;;;24.30;99.90;;;;;;4919591;29;20517;-72
2023/06/21 11:46:49;;;;;;;1999.90;999.90;;;24.30;99.90;;;;;;4918633;29;20063;-73
2023/06/21 11:49:16;;;;;;;1999.90;999.90;;;24.40;99.90;;;;;;4918790;29;20059;-72
2023/06/21 11:52:09;;;;;;;1999.90;999.90;;;24.40;99.90;;;;;;4919224;29;20527;-71
2023/06/21 11:54:36;;;;;;;1999.90;999.90;;;24.50;99.90;;;;;;4918994;29;20104;-74
2023/06/21 11:57:11;;;;;;;1999.90;999.90;;;24.60;99.90;;;;;;4917279;29;20056;-71
2023/06/21 11:59:37;;;;;;;1999.90;999.90;;;24.60;99.90;;;;;;4919350;29;20064;-72
2023/06/21 12:02:13;;;;;;;1999.90;999.90;;;24.70;99.90;;;;;;4918669;29;20051;-73
2023/06/21 12:04:40;;;;;;;1999.90;999.90;;;24.70;99.90;;;;;;4918292;29;20059;-72
2023/06/21 12:07:06;;;;;;;1999.90;999.90;;;24.60;99.90;;;;;;4919227;29;20143;-72
2023/06/21 12:09:32;;;;;;;1999.90;999.90;;;24.70;99.90;;;;;;4918933;29;20068;-73
2023/06/21 12:11:58;;;;;;;1999.90;999.90;;;24.70;99.90;;;;;;4917804;29;20052;-72
2023/06/21 12:14:25;;;;;;;1999.90;999.90;;;24.70;99.90;;;;;;4918093;29;20083;-72
2023/06/21 12:16:50;;;;;;;1999.90;999.90;;;24.80;99.90;;;;;;4917896;29;20135;-72